Buffalo (BUF/KBUF)

Map

Information

Location
Buffalo, NY
Local Time
14:13 / 2:13 pm
GMT Time
18:13 / 6:13 pm
Gates
No FAA reported delays
METAR KBUF 201754Z VRB04KT 10SM FEW041 27/16 A3003 RMK AO2 SLP165 T02670161 10272 20167 58006
TAF KBUF 201729Z 2018/2118 04005KT P6SM FEW035 FM202200 VRB03KT P6SM FEW200 FM210500 VRB03KT 5SM BR FEW200 FM211300 VRB03KT P6SM FEW250